Accueil
METAR-TAF:

METAR-TAF

Aéroports :

Clermont-Ferrand, France

Aéroport de Clermont-Ferrand Auvergne

latitude: 45-47N, longitude: 003-10E, altitude: 332 m

Observation

Le bulletin a été fait il y a 37 minutes, à 19:00 UTC
Vent 5 kt de nord, variant entre nord/nord-ouest et est/nord-est
Température 21°C
Humidité 64%
Pression 1021 hPa
Visibilité 10 km ou plus
pas de nuages en-dessous de 1500 mètres et pas de cumulonimbus.

METAR: LFLC 241900Z AUTO 01005KT 340V070 CAVOK 21/14 Q1021 NOSIG

Heure: 21:37 (19:37 UTC)

Prévision

Le bulletin a été fait il y a 5 heures et 37 minutes, à 14:00 UTC
Prévision valable du 24 à 15 UTC au 25 à 15 UTC
Vent 6 kt de nord
Visibilité 10 km ou plus
pas de nuages en-dessous de 1500 mètres et pas de cumulonimbus.

TAF: LFLC 241400Z 2415/2515 01006KT CAVOK

Observations et prévisions météorologiques de plus de 4000 aéroports (messages METAR et TAF).

Les stations disponibles sont représentées par des disques jaunes et rouges sur la carte.

Passer la souris dessus pour voir le nom de la station.

Cliquer dessus pour voir les observations et prévisions météorologiques.

Pour changer de carte: cliquez sur les boutons verts avec une croix noire pour zoomer, sur le bouton vert avec un tiret pour effectuer un zoom arrière, ou sur les flèches vertes pour les cartes adjacentes.


METAR-TAF: